sensor_id;sensor_type;location;lat;lon;timestamp;P1;durP1;ratioP1;P2;durP2;ratioP2
13731;SDS011;6937;56.096;12.664;2023-09-19T00:00:00;9.43;;;5.95;;
13731;SDS011;6937;56.096;12.664;2023-09-19T00:02:26;7.15;;;5.18;;
13731;SDS011;6937;56.096;12.664;2023-09-19T00:04:51;9.85;;;5.60;;
13731;SDS011;6937;56.096;12.664;2023-09-19T00:07:17;8.07;;;5.70;;
13731;SDS011;6937;56.096;12.664;2023-09-19T00:09:42;7.85;;;5.25;;
13731;SDS011;6937;56.096;12.664;2023-09-19T00:12:09;8.25;;;6.28;;
13731;SDS011;6937;56.096;12.664;2023-09-19T00:14:35;9.52;;;6.28;;
13731;SDS011;6937;56.096;12.664;2023-09-19T00:17:01;10.88;;;6.88;;
13731;SDS011;6937;56.096;12.664;2023-09-19T00:19:32;10.68;;;6.47;;
13731;SDS011;6937;56.096;12.664;2023-09-19T00:21:58;8.77;;;6.35;;
13731;SDS011;6937;56.096;12.664;2023-09-19T00:24:23;9.43;;;6.57;;
13731;SDS011;6937;56.096;12.664;2023-09-19T00:26:48;9.52;;;5.78;;
13731;SDS011;6937;56.096;12.664;2023-09-19T00:29:14;12.38;;;5.68;;
13731;SDS011;6937;56.096;12.664;2023-09-19T00:31:44;9.68;;;5.78;;
13731;SDS011;6937;56.096;12.664;2023-09-19T00:34:10;8.07;;;5.20;;
13731;SDS011;6937;56.096;12.664;2023-09-19T00:36:39;6.90;;;5.38;;
13731;SDS011;6937;56.096;12.664;2023-09-19T00:39:08;8.70;;;4.93;;
13731;SDS011;6937;56.096;12.664;2023-09-19T00:41:33;6.13;;;4.47;;
13731;SDS011;6937;56.096;12.664;2023-09-19T00:44:00;8.35;;;4.90;;
13731;SDS011;6937;56.096;12.664;2023-09-19T00:46:27;8.85;;;5.00;;
13731;SDS011;6937;56.096;12.664;2023-09-19T00:48:52;8.32;;;4.53;;
13731;SDS011;6937;56.096;12.664;2023-09-19T00:51:18;8.60;;;5.03;;
13731;SDS011;6937;56.096;12.664;2023-09-19T00:53:47;7.70;;;4.72;;
13731;SDS011;6937;56.096;12.664;2023-09-19T00:56:13;8.02;;;4.45;;
13731;SDS011;6937;56.096;12.664;2023-09-19T00:58:40;7.95;;;4.53;;
13731;SDS011;6937;56.096;12.664;2023-09-19T01:01:05;6.68;;;3.97;;
13731;SDS011;6937;56.096;12.664;2023-09-19T01:03:32;6.22;;;4.05;;
13731;SDS011;6937;56.096;12.664;2023-09-19T01:06:01;5.88;;;3.80;;
13731;SDS011;6937;56.096;12.664;2023-09-19T01:08:27;6.63;;;4.07;;
13731;SDS011;6937;56.096;12.664;2023-09-19T01:11:04;9.38;;;3.70;;
13731;SDS011;6937;56.096;12.664;2023-09-19T01:16:42;8.00;;;3.67;;
13731;SDS011;6937;56.096;12.664;2023-09-19T01:22:16;7.65;;;3.72;;
13731;SDS011;6937;56.096;12.664;2023-09-19T01:27:43;4.78;;;2.75;;
13731;SDS011;6937;56.096;12.664;2023-09-19T01:30:31;5.03;;;2.80;;
13731;SDS011;6937;56.096;12.664;2023-09-19T01:32:58;5.80;;;3.10;;
13731;SDS011;6937;56.096;12.664;2023-09-19T01:35:24;5.28;;;2.70;;
13731;SDS011;6937;56.096;12.664;2023-09-19T01:37:50;5.75;;;3.00;;
13731;SDS011;6937;56.096;12.664;2023-09-19T01:40:16;5.25;;;2.67;;
13731;SDS011;6937;56.096;12.664;2023-09-19T01:42:50;5.38;;;2.72;;
13731;SDS011;6937;56.096;12.664;2023-09-19T01:45:42;5.35;;;3.08;;
13731;SDS011;6937;56.096;12.664;2023-09-19T01:48:35;4.65;;;2.33;;
13731;SDS011;6937;56.096;12.664;2023-09-19T01:51:02;7.25;;;2.85;;
13731;SDS011;6937;56.096;12.664;2023-09-19T01:53:35;4.60;;;2.00;;
13731;SDS011;6937;56.096;12.664;2023-09-19T01:56:08;6.55;;;3.03;;
13731;SDS011;6937;56.096;12.664;2023-09-19T01:58:41;4.55;;;2.40;;
13731;SDS011;6937;56.096;12.664;2023-09-19T02:01:14;3.75;;;2.42;;
13731;SDS011;6937;56.096;12.664;2023-09-19T02:03:43;4.00;;;2.22;;
13731;SDS011;6937;56.096;12.664;2023-09-19T02:06:15;3.60;;;2.22;;
13731;SDS011;6937;56.096;12.664;2023-09-19T02:08:42;4.13;;;2.35;;
13731;SDS011;6937;56.096;12.664;2023-09-19T02:11:08;6.43;;;2.10;;
13731;SDS011;6937;56.096;12.664;2023-09-19T02:13:33;3.28;;;1.70;;
13731;SDS011;6937;56.096;12.664;2023-09-19T02:15:59;6.97;;;1.98;;
13731;SDS011;6937;56.096;12.664;2023-09-19T02:18:25;5.50;;;2.58;;
13731;SDS011;6937;56.096;12.664;2023-09-19T02:20:52;5.38;;;2.40;;
13731;SDS011;6937;56.096;12.664;2023-09-19T02:23:18;4.60;;;1.85;;
13731;SDS011;6937;56.096;12.664;2023-09-19T02:25:51;4.28;;;1.88;;
13731;SDS011;6937;56.096;12.664;2023-09-19T02:28:19;4.47;;;1.88;;
13731;SDS011;6937;56.096;12.664;2023-09-19T02:30:48;4.72;;;1.88;;
13731;SDS011;6937;56.096;12.664;2023-09-19T02:33:14;3.47;;;1.95;;
13731;SDS011;6937;56.096;12.664;2023-09-19T02:35:39;3.35;;;1.90;;
13731;SDS011;6937;56.096;12.664;2023-09-19T02:38:05;2.30;;;1.50;;
13731;SDS011;6937;56.096;12.664;2023-09-19T02:40:32;5.88;;;1.70;;
13731;SDS011;6937;56.096;12.664;2023-09-19T02:43:00;3.40;;;1.67;;
13731;SDS011;6937;56.096;12.664;2023-09-19T02:45:27;4.18;;;1.90;;
13731;SDS011;6937;56.096;12.664;2023-09-19T02:47:53;2.72;;;1.50;;
13731;SDS011;6937;56.096;12.664;2023-09-19T02:50:19;2.30;;;1.83;;
13731;SDS011;6937;56.096;12.664;2023-09-19T02:52:45;3.33;;;1.55;;
13731;SDS011;6937;56.096;12.664;2023-09-19T02:55:15;4.50;;;1.88;;
13731;SDS011;6937;56.096;12.664;2023-09-19T02:57:48;3.25;;;1.58;;
13731;SDS011;6937;56.096;12.664;2023-09-19T03:00:14;3.00;;;1.25;;
13731;SDS011;6937;56.096;12.664;2023-09-19T03:02:40;3.15;;;1.52;;
13731;SDS011;6937;56.096;12.664;2023-09-19T03:05:06;4.07;;;1.75;;
13731;SDS011;6937;56.096;12.664;2023-09-19T03:07:32;4.32;;;1.48;;
13731;SDS011;6937;56.096;12.664;2023-09-19T03:09:58;3.70;;;1.70;;
13731;SDS011;6937;56.096;12.664;2023-09-19T03:12:24;5.25;;;2.25;;
13731;SDS011;6937;56.096;12.664;2023-09-19T03:14:50;2.88;;;1.42;;
13731;SDS011;6937;56.096;12.664;2023-09-19T03:17:16;3.47;;;1.30;;
13731;SDS011;6937;56.096;12.664;2023-09-19T03:19:42;5.65;;;2.15;;
13731;SDS011;6937;56.096;12.664;2023-09-19T03:22:07;2.95;;;1.48;;
13731;SDS011;6937;56.096;12.664;2023-09-19T03:24:33;3.28;;;1.40;;
13731;SDS011;6937;56.096;12.664;2023-09-19T03:26:59;4.53;;;1.83;;
13731;SDS011;6937;56.096;12.664;2023-09-19T03:29:24;4.68;;;1.50;;
13731;SDS011;6937;56.096;12.664;2023-09-19T03:31:50;2.33;;;1.38;;
13731;SDS011;6937;56.096;12.664;2023-09-19T03:34:16;3.15;;;1.30;;
13731;SDS011;6937;56.096;12.664;2023-09-19T03:36:41;4.03;;;1.70;;
13731;SDS011;6937;56.096;12.664;2023-09-19T03:39:07;3.38;;;1.48;;
13731;SDS011;6937;56.096;12.664;2023-09-19T03:41:32;3.30;;;1.67;;
13731;SDS011;6937;56.096;12.664;2023-09-19T03:43:58;2.97;;;1.50;;
13731;SDS011;6937;56.096;12.664;2023-09-19T03:46:23;3.95;;;1.60;;
13731;SDS011;6937;56.096;12.664;2023-09-19T03:48:49;4.28;;;1.60;;
13731;SDS011;6937;56.096;12.664;2023-09-19T03:51:15;3.35;;;1.38;;
13731;SDS011;6937;56.096;12.664;2023-09-19T03:53:40;3.63;;;1.60;;
13731;SDS011;6937;56.096;12.664;2023-09-19T03:56:06;7.32;;;1.88;;
13731;SDS011;6937;56.096;12.664;2023-09-19T03:58:33;6.50;;;1.80;;
13731;SDS011;6937;56.096;12.664;2023-09-19T04:01:00;2.70;;;1.70;;
13731;SDS011;6937;56.096;12.664;2023-09-19T04:03:25;3.50;;;1.73;;
13731;SDS011;6937;56.096;12.664;2023-09-19T04:05:59;3.58;;;1.40;;
13731;SDS011;6937;56.096;12.664;2023-09-19T04:08:25;3.35;;;1.50;;
13731;SDS011;6937;56.096;12.664;2023-09-19T04:10:51;3.67;;;1.70;;
13731;SDS011;6937;56.096;12.664;2023-09-19T04:13:17;4.72;;;1.70;;
13731;SDS011;6937;56.096;12.664;2023-09-19T04:15:43;3.60;;;1.60;;
13731;SDS011;6937;56.096;12.664;2023-09-19T04:18:08;4.75;;;1.65;;
13731;SDS011;6937;56.096;12.664;2023-09-19T04:20:33;5.63;;;1.50;;
13731;SDS011;6937;56.096;12.664;2023-09-19T04:22:59;5.30;;;1.98;;
13731;SDS011;6937;56.096;12.664;2023-09-19T04:25:25;3.75;;;1.52;;
13731;SDS011;6937;56.096;12.664;2023-09-19T04:27:51;5.68;;;1.73;;
13731;SDS011;6937;56.096;12.664;2023-09-19T04:30:17;4.68;;;1.67;;
13731;SDS011;6937;56.096;12.664;2023-09-19T04:32:42;6.38;;;1.70;;
13731;SDS011;6937;56.096;12.664;2023-09-19T04:35:08;4.85;;;2.08;;
13731;SDS011;6937;56.096;12.664;2023-09-19T04:37:36;6.00;;;1.75;;
13731;SDS011;6937;56.096;12.664;2023-09-19T04:40:03;4.35;;;1.60;;
13731;SDS011;6937;56.096;12.664;2023-09-19T04:42:31;5.28;;;1.65;;
13731;SDS011;6937;56.096;12.664;2023-09-19T04:44:56;4.20;;;1.42;;
13731;SDS011;6937;56.096;12.664;2023-09-19T04:47:21;3.00;;;1.50;;
13731;SDS011;6937;56.096;12.664;2023-09-19T04:49:47;2.85;;;1.67;;
13731;SDS011;6937;56.096;12.664;2023-09-19T04:52:13;5.88;;;2.00;;
13731;SDS011;6937;56.096;12.664;2023-09-19T04:54:40;5.35;;;1.42;;
13731;SDS011;6937;56.096;12.664;2023-09-19T04:57:06;4.20;;;1.90;;
13731;SDS011;6937;56.096;12.664;2023-09-19T04:59:32;4.85;;;1.65;;
13731;SDS011;6937;56.096;12.664;2023-09-19T05:01:57;4.60;;;1.77;;
13731;SDS011;6937;56.096;12.664;2023-09-19T05:04:23;5.15;;;2.10;;
13731;SDS011;6937;56.096;12.664;2023-09-19T05:06:49;6.28;;;2.03;;
13731;SDS011;6937;56.096;12.664;2023-09-19T05:09:14;5.88;;;1.98;;
13731;SDS011;6937;56.096;12.664;2023-09-19T05:11:40;4.40;;;1.63;;
13731;SDS011;6937;56.096;12.664;2023-09-19T05:14:06;4.72;;;1.60;;
13731;SDS011;6937;56.096;12.664;2023-09-19T05:16:31;4.30;;;1.98;;
13731;SDS011;6937;56.096;12.664;2023-09-19T05:18:57;5.10;;;2.05;;
13731;SDS011;6937;56.096;12.664;2023-09-19T05:21:25;5.85;;;1.90;;
13731;SDS011;6937;56.096;12.664;2023-09-19T05:23:53;9.73;;;2.15;;
13731;SDS011;6937;56.096;12.664;2023-09-19T05:26:19;5.88;;;1.83;;
13731;SDS011;6937;56.096;12.664;2023-09-19T05:28:45;11.77;;;2.90;;
13731;SDS011;6937;56.096;12.664;2023-09-19T05:31:13;5.95;;;2.30;;
13731;SDS011;6937;56.096;12.664;2023-09-19T05:33:39;8.45;;;2.50;;
13731;SDS011;6937;56.096;12.664;2023-09-19T05:36:04;7.13;;;1.88;;
13731;SDS011;6937;56.096;12.664;2023-09-19T05:38:30;6.35;;;2.20;;
13731;SDS011;6937;56.096;12.664;2023-09-19T05:40:55;5.55;;;1.90;;
13731;SDS011;6937;56.096;12.664;2023-09-19T05:43:21;7.78;;;2.53;;
13731;SDS011;6937;56.096;12.664;2023-09-19T05:45:46;7.93;;;2.47;;
13731;SDS011;6937;56.096;12.664;2023-09-19T05:48:13;6.80;;;2.63;;
13731;SDS011;6937;56.096;12.664;2023-09-19T05:50:41;7.70;;;2.50;;
13731;SDS011;6937;56.096;12.664;2023-09-19T05:53:07;7.40;;;2.28;;
13731;SDS011;6937;56.096;12.664;2023-09-19T05:55:33;7.60;;;2.35;;
13731;SDS011;6937;56.096;12.664;2023-09-19T05:57:59;8.20;;;2.45;;
13731;SDS011;6937;56.096;12.664;2023-09-19T06:00:25;6.65;;;2.25;;
13731;SDS011;6937;56.096;12.664;2023-09-19T06:02:52;7.82;;;2.70;;
13731;SDS011;6937;56.096;12.664;2023-09-19T06:05:19;6.03;;;2.55;;
13731;SDS011;6937;56.096;12.664;2023-09-19T06:07:45;6.07;;;2.22;;
13731;SDS011;6937;56.096;12.664;2023-09-19T06:10:11;4.57;;;2.22;;
13731;SDS011;6937;56.096;12.664;2023-09-19T06:12:38;8.52;;;3.05;;
13731;SDS011;6937;56.096;12.664;2023-09-19T06:15:04;8.38;;;2.20;;
13731;SDS011;6937;56.096;12.664;2023-09-19T06:17:40;6.85;;;2.22;;
13731;SDS011;6937;56.096;12.664;2023-09-19T06:20:12;6.18;;;2.05;;
13731;SDS011;6937;56.096;12.664;2023-09-19T06:22:41;5.00;;;2.10;;
13731;SDS011;6937;56.096;12.664;2023-09-19T06:25:11;7.35;;;2.40;;
13731;SDS011;6937;56.096;12.664;2023-09-19T06:27:38;6.10;;;2.08;;
13731;SDS011;6937;56.096;12.664;2023-09-19T06:30:07;7.57;;;2.40;;
13731;SDS011;6937;56.096;12.664;2023-09-19T06:32:33;5.53;;;2.28;;
13731;SDS011;6937;56.096;12.664;2023-09-19T06:34:59;5.68;;;2.10;;
13731;SDS011;6937;56.096;12.664;2023-09-19T06:37:26;6.20;;;2.75;;
13731;SDS011;6937;56.096;12.664;2023-09-19T06:39:53;6.20;;;2.10;;
13731;SDS011;6937;56.096;12.664;2023-09-19T06:42:18;6.53;;;2.53;;
13731;SDS011;6937;56.096;12.664;2023-09-19T06:44:44;7.78;;;2.30;;
13731;SDS011;6937;56.096;12.664;2023-09-19T06:47:09;5.63;;;2.13;;
13731;SDS011;6937;56.096;12.664;2023-09-19T06:49:35;4.43;;;1.90;;
13731;SDS011;6937;56.096;12.664;2023-09-19T06:52:01;6.43;;;2.42;;
13731;SDS011;6937;56.096;12.664;2023-09-19T06:54:27;8.23;;;2.58;;
13731;SDS011;6937;56.096;12.664;2023-09-19T06:56:56;6.45;;;2.35;;
13731;SDS011;6937;56.096;12.664;2023-09-19T06:59:23;5.95;;;2.60;;
13731;SDS011;6937;56.096;12.664;2023-09-19T07:01:49;5.43;;;2.45;;
13731;SDS011;6937;56.096;12.664;2023-09-19T07:04:15;7.85;;;2.55;;
13731;SDS011;6937;56.096;12.664;2023-09-19T07:06:42;6.43;;;2.33;;
13731;SDS011;6937;56.096;12.664;2023-09-19T07:09:07;6.40;;;2.50;;
13731;SDS011;6937;56.096;12.664;2023-09-19T07:11:33;8.25;;;2.55;;
13731;SDS011;6937;56.096;12.664;2023-09-19T07:13:59;10.00;;;2.75;;
13731;SDS011;6937;56.096;12.664;2023-09-19T07:16:24;8.75;;;2.83;;
13731;SDS011;6937;56.096;12.664;2023-09-19T07:18:55;6.28;;;2.60;;
13731;SDS011;6937;56.096;12.664;2023-09-19T07:21:21;9.68;;;2.60;;
13731;SDS011;6937;56.096;12.664;2023-09-19T07:23:47;9.23;;;2.28;;
13731;SDS011;6937;56.096;12.664;2023-09-19T07:26:13;7.90;;;2.92;;
13731;SDS011;6937;56.096;12.664;2023-09-19T07:28:39;7.82;;;2.70;;
13731;SDS011;6937;56.096;12.664;2023-09-19T07:31:04;9.13;;;2.92;;
13731;SDS011;6937;56.096;12.664;2023-09-19T07:33:32;8.05;;;2.75;;
13731;SDS011;6937;56.096;12.664;2023-09-19T07:35:57;8.85;;;2.78;;
13731;SDS011;6937;56.096;12.664;2023-09-19T07:38:23;9.10;;;2.80;;
13731;SDS011;6937;56.096;12.664;2023-09-19T07:40:49;10.32;;;2.95;;
13731;SDS011;6937;56.096;12.664;2023-09-19T07:43:15;9.48;;;2.60;;
13731;SDS011;6937;56.096;12.664;2023-09-19T07:45:40;9.80;;;3.05;;
13731;SDS011;6937;56.096;12.664;2023-09-19T07:48:06;8.02;;;2.65;;
13731;SDS011;6937;56.096;12.664;2023-09-19T07:50:39;10.55;;;2.60;;
13731;SDS011;6937;56.096;12.664;2023-09-19T07:53:05;7.57;;;2.70;;
13731;SDS011;6937;56.096;12.664;2023-09-19T07:55:31;8.25;;;2.80;;
13731;SDS011;6937;56.096;12.664;2023-09-19T07:57:58;7.20;;;2.60;;
13731;SDS011;6937;56.096;12.664;2023-09-19T08:00:24;9.07;;;3.00;;
13731;SDS011;6937;56.096;12.664;2023-09-19T08:02:49;9.13;;;2.83;;
13731;SDS011;6937;56.096;12.664;2023-09-19T08:05:16;11.20;;;2.90;;
13731;SDS011;6937;56.096;12.664;2023-09-19T08:07:44;11.40;;;2.60;;
13731;SDS011;6937;56.096;12.664;2023-09-19T08:10:13;8.45;;;2.88;;
13731;SDS011;6937;56.096;12.664;2023-09-19T08:12:41;11.40;;;3.30;;
13731;SDS011;6937;56.096;12.664;2023-09-19T08:15:12;8.88;;;2.72;;
13731;SDS011;6937;56.096;12.664;2023-09-19T08:17:40;9.57;;;3.10;;
13731;SDS011;6937;56.096;12.664;2023-09-19T08:20:06;10.13;;;3.08;;
13731;SDS011;6937;56.096;12.664;2023-09-19T08:22:32;10.35;;;3.30;;
13731;SDS011;6937;56.096;12.664;2023-09-19T08:24:58;11.55;;;2.92;;
13731;SDS011;6937;56.096;12.664;2023-09-19T08:27:24;9.30;;;2.70;;
13731;SDS011;6937;56.096;12.664;2023-09-19T08:29:52;8.63;;;2.95;;
13731;SDS011;6937;56.096;12.664;2023-09-19T08:32:17;10.38;;;2.70;;
13731;SDS011;6937;56.096;12.664;2023-09-19T08:34:48;10.98;;;2.70;;
13731;SDS011;6937;56.096;12.664;2023-09-19T08:37:14;11.20;;;3.65;;
13731;SDS011;6937;56.096;12.664;2023-09-19T08:39:39;10.10;;;2.78;;
13731;SDS011;6937;56.096;12.664;2023-09-19T08:42:04;6.18;;;1.73;;
13731;SDS011;6937;56.096;12.664;2023-09-19T08:44:30;5.47;;;1.10;;
13731;SDS011;6937;56.096;12.664;2023-09-19T08:47:05;3.95;;;1.27;;
13731;SDS011;6937;56.096;12.664;2023-09-19T08:52:20;4.70;;;1.23;;
13731;SDS011;6937;56.096;12.664;2023-09-19T08:54:48;3.20;;;1.30;;
13731;SDS011;6937;56.096;12.664;2023-09-19T08:57:17;5.43;;;1.38;;
13731;SDS011;6937;56.096;12.664;2023-09-19T08:59:47;4.85;;;1.10;;
13731;SDS011;6937;56.096;12.664;2023-09-19T09:02:16;4.32;;;1.40;;
13731;SDS011;6937;56.096;12.664;2023-09-19T09:04:44;2.83;;;1.10;;
13731;SDS011;6937;56.096;12.664;2023-09-19T09:07:11;6.25;;;1.60;;
13731;SDS011;6937;56.096;12.664;2023-09-19T09:09:38;4.22;;;1.20;;
13731;SDS011;6937;56.096;12.664;2023-09-19T09:12:07;5.25;;;1.50;;
13731;SDS011;6937;56.096;12.664;2023-09-19T09:14:45;4.03;;;1.40;;
13731;SDS011;6937;56.096;12.664;2023-09-19T09:17:15;5.75;;;1.40;;
13731;SDS011;6937;56.096;12.664;2023-09-19T09:19:46;8.18;;;1.55;;
13731;SDS011;6937;56.096;12.664;2023-09-19T09:22:12;3.90;;;1.23;;
13731;SDS011;6937;56.096;12.664;2023-09-19T09:24:50;4.00;;;1.40;;
13731;SDS011;6937;56.096;12.664;2023-09-19T09:27:23;4.50;;;1.67;;
13731;SDS011;6937;56.096;12.664;2023-09-19T09:29:49;7.93;;;1.70;;
13731;SDS011;6937;56.096;12.664;2023-09-19T09:32:25;7.45;;;1.90;;
13731;SDS011;6937;56.096;12.664;2023-09-19T09:34:57;5.45;;;1.70;;
13731;SDS011;6937;56.096;12.664;2023-09-19T09:37:24;5.63;;;2.10;;
13731;SDS011;6937;56.096;12.664;2023-09-19T09:39:52;6.00;;;2.05;;
13731;SDS011;6937;56.096;12.664;2023-09-19T09:42:32;5.35;;;1.90;;
13731;SDS011;6937;56.096;12.664;2023-09-19T09:48:01;10.35;;;2.10;;
13731;SDS011;6937;56.096;12.664;2023-09-19T09:50:39;6.25;;;1.90;;
13731;SDS011;6937;56.096;12.664;2023-09-19T09:56:05;8.00;;;2.17;;
13731;SDS011;6937;56.096;12.664;2023-09-19T09:58:35;6.90;;;2.15;;
13731;SDS011;6937;56.096;12.664;2023-09-19T10:01:02;10.43;;;2.28;;
13731;SDS011;6937;56.096;12.664;2023-09-19T10:03:36;6.82;;;2.22;;
13731;SDS011;6937;56.096;12.664;2023-09-19T10:06:07;7.72;;;1.90;;
13731;SDS011;6937;56.096;12.664;2023-09-19T10:11:49;7.50;;;2.03;;
13731;SDS011;6937;56.096;12.664;2023-09-19T10:14:37;5.85;;;1.98;;
13731;SDS011;6937;56.096;12.664;2023-09-19T10:17:06;6.60;;;2.35;;
13731;SDS011;6937;56.096;12.664;2023-09-19T10:19:42;3.78;;;1.85;;
13731;SDS011;6937;56.096;12.664;2023-09-19T10:22:22;4.60;;;1.90;;
13731;SDS011;6937;56.096;12.664;2023-09-19T10:24:50;7.00;;;1.70;;
13731;SDS011;6937;56.096;12.664;2023-09-19T10:27:19;4.30;;;1.80;;
13731;SDS011;6937;56.096;12.664;2023-09-19T10:29:48;5.15;;;1.67;;
13731;SDS011;6937;56.096;12.664;2023-09-19T10:32:20;6.90;;;1.95;;
13731;SDS011;6937;56.096;12.664;2023-09-19T10:34:48;4.70;;;1.75;;
13731;SDS011;6937;56.096;12.664;2023-09-19T10:37:15;4.40;;;1.70;;
13731;SDS011;6937;56.096;12.664;2023-09-19T10:39:44;3.90;;;1.48;;
13731;SDS011;6937;56.096;12.664;2023-09-19T10:42:11;4.95;;;1.65;;
13731;SDS011;6937;56.096;12.664;2023-09-19T10:44:42;6.30;;;1.52;;
13731;SDS011;6937;56.096;12.664;2023-09-19T10:47:10;5.70;;;1.20;;
13731;SDS011;6937;56.096;12.664;2023-09-19T10:49:42;2.88;;;1.27;;
13731;SDS011;6937;56.096;12.664;2023-09-19T10:52:08;4.97;;;1.50;;
13731;SDS011;6937;56.096;12.664;2023-09-19T10:54:38;3.90;;;1.40;;
13731;SDS011;6937;56.096;12.664;2023-09-19T10:57:06;4.88;;;1.60;;
13731;SDS011;6937;56.096;12.664;2023-09-19T10:59:34;4.97;;;1.65;;
13731;SDS011;6937;56.096;12.664;2023-09-19T11:02:00;4.32;;;1.52;;
13731;SDS011;6937;56.096;12.664;2023-09-19T11:04:42;4.05;;;1.35;;
13731;SDS011;6937;56.096;12.664;2023-09-19T11:09:54;6.80;;;1.30;;
13731;SDS011;6937;56.096;12.664;2023-09-19T11:15:01;4.28;;;1.77;;
13731;SDS011;6937;56.096;12.664;2023-09-19T11:17:36;5.55;;;1.80;;
13731;SDS011;6937;56.096;12.664;2023-09-19T11:30:41;6.05;;;1.65;;
13731;SDS011;6937;56.096;12.664;2023-09-19T11:49:16;5.22;;;1.42;;
13731;SDS011;6937;56.096;12.664;2023-09-19T11:51:46;5.93;;;1.60;;
13731;SDS011;6937;56.096;12.664;2023-09-19T11:54:14;4.60;;;1.67;;
13731;SDS011;6937;56.096;12.664;2023-09-19T11:56:44;4.85;;;1.42;;
13731;SDS011;6937;56.096;12.664;2023-09-19T11:59:11;6.03;;;1.38;;
13731;SDS011;6937;56.096;12.664;2023-09-19T12:01:37;4.70;;;1.40;;
13731;SDS011;6937;56.096;12.664;2023-09-19T12:04:11;5.93;;;1.80;;
13731;SDS011;6937;56.096;12.664;2023-09-19T12:06:37;5.15;;;1.40;;
13731;SDS011;6937;56.096;12.664;2023-09-19T12:09:12;4.00;;;1.38;;
13731;SDS011;6937;56.096;12.664;2023-09-19T12:11:42;8.75;;;2.13;;
13731;SDS011;6937;56.096;12.664;2023-09-19T12:14:09;6.75;;;1.60;;
13731;SDS011;6937;56.096;12.664;2023-09-19T12:16:34;4.85;;;1.77;;
13731;SDS011;6937;56.096;12.664;2023-09-19T12:19:17;3.85;;;1.40;;
13731;SDS011;6937;56.096;12.664;2023-09-19T12:21:53;5.25;;;1.80;;
13731;SDS011;6937;56.096;12.664;2023-09-19T12:24:29;6.53;;;1.73;;
13731;SDS011;6937;56.096;12.664;2023-09-19T12:26:56;4.40;;;1.60;;
13731;SDS011;6937;56.096;12.664;2023-09-19T12:29:26;6.28;;;1.70;;
13731;SDS011;6937;56.096;12.664;2023-09-19T12:31:56;6.68;;;2.10;;
13731;SDS011;6937;56.096;12.664;2023-09-19T12:34:26;4.45;;;1.50;;
13731;SDS011;6937;56.096;12.664;2023-09-19T12:37:05;4.78;;;1.77;;
13731;SDS011;6937;56.096;12.664;2023-09-19T12:39:38;4.68;;;1.48;;
13731;SDS011;6937;56.096;12.664;2023-09-19T12:42:06;6.55;;;1.90;;
13731;SDS011;6937;56.096;12.664;2023-09-19T12:44:34;5.80;;;1.83;;
13731;SDS011;6937;56.096;12.664;2023-09-19T12:47:08;9.27;;;2.70;;
13731;SDS011;6937;56.096;12.664;2023-09-19T12:49:34;4.75;;;1.70;;
13731;SDS011;6937;56.096;12.664;2023-09-19T12:52:00;6.90;;;1.48;;
13731;SDS011;6937;56.096;12.664;2023-09-19T12:54:25;5.47;;;1.60;;
13731;SDS011;6937;56.096;12.664;2023-09-19T12:57:03;4.68;;;1.83;;
13731;SDS011;6937;56.096;12.664;2023-09-19T12:59:30;5.30;;;1.30;;
13731;SDS011;6937;56.096;12.664;2023-09-19T13:02:04;4.72;;;1.40;;
13731;SDS011;6937;56.096;12.664;2023-09-19T13:04:38;8.70;;;2.13;;
13731;SDS011;6937;56.096;12.664;2023-09-19T13:07:06;7.10;;;1.42;;
13731;SDS011;6937;56.096;12.664;2023-09-19T13:09:34;5.05;;;1.50;;
13731;SDS011;6937;56.096;12.664;2023-09-19T13:11:59;5.38;;;1.88;;
13731;SDS011;6937;56.096;12.664;2023-09-19T13:14:27;6.22;;;1.67;;
13731;SDS011;6937;56.096;12.664;2023-09-19T13:22:38;8.88;;;1.73;;
13731;SDS011;6937;56.096;12.664;2023-09-19T13:25:06;5.28;;;1.60;;
13731;SDS011;6937;56.096;12.664;2023-09-19T13:27:33;8.90;;;2.17;;
13731;SDS011;6937;56.096;12.664;2023-09-19T13:29:58;4.25;;;1.60;;
13731;SDS011;6937;56.096;12.664;2023-09-19T13:32:25;7.07;;;2.10;;
13731;SDS011;6937;56.096;12.664;2023-09-19T13:34:50;5.20;;;2.05;;
13731;SDS011;6937;56.096;12.664;2023-09-19T13:37:16;5.95;;;1.98;;
13731;SDS011;6937;56.096;12.664;2023-09-19T13:39:43;5.97;;;2.00;;
13731;SDS011;6937;56.096;12.664;2023-09-19T13:42:12;6.78;;;2.00;;
13731;SDS011;6937;56.096;12.664;2023-09-19T13:44:38;8.02;;;2.40;;
13731;SDS011;6937;56.096;12.664;2023-09-19T13:47:06;4.07;;;1.50;;
13731;SDS011;6937;56.096;12.664;2023-09-19T13:49:34;6.47;;;2.05;;
13731;SDS011;6937;56.096;12.664;2023-09-19T13:52:00;5.25;;;1.90;;
13731;SDS011;6937;56.096;12.664;2023-09-19T13:54:28;6.68;;;2.13;;
13731;SDS011;6937;56.096;12.664;2023-09-19T13:56:53;5.28;;;1.85;;
13731;SDS011;6937;56.096;12.664;2023-09-19T13:59:19;6.47;;;2.00;;
13731;SDS011;6937;56.096;12.664;2023-09-19T14:01:46;5.95;;;1.55;;
13731;SDS011;6937;56.096;12.664;2023-09-19T14:04:11;4.63;;;1.65;;
13731;SDS011;6937;56.096;12.664;2023-09-19T14:06:36;7.70;;;2.45;;
13731;SDS011;6937;56.096;12.664;2023-09-19T14:09:02;5.47;;;1.83;;
13731;SDS011;6937;56.096;12.664;2023-09-19T14:11:28;3.55;;;1.50;;
13731;SDS011;6937;56.096;12.664;2023-09-19T14:13:54;6.65;;;2.00;;
13731;SDS011;6937;56.096;12.664;2023-09-19T14:16:19;6.18;;;1.95;;
13731;SDS011;6937;56.096;12.664;2023-09-19T14:18:47;7.18;;;2.20;;
13731;SDS011;6937;56.096;12.664;2023-09-19T14:21:13;6.35;;;2.20;;
13731;SDS011;6937;56.096;12.664;2023-09-19T14:23:39;7.03;;;2.28;;
13731;SDS011;6937;56.096;12.664;2023-09-19T14:26:07;6.80;;;2.20;;
13731;SDS011;6937;56.096;12.664;2023-09-19T14:28:34;7.30;;;1.95;;
13731;SDS011;6937;56.096;12.664;2023-09-19T14:31:09;6.07;;;2.35;;
13731;SDS011;6937;56.096;12.664;2023-09-19T14:33:35;5.40;;;2.25;;
13731;SDS011;6937;56.096;12.664;2023-09-19T14:36:04;6.60;;;2.20;;
13731;SDS011;6937;56.096;12.664;2023-09-19T14:38:31;8.50;;;2.50;;
13731;SDS011;6937;56.096;12.664;2023-09-19T14:41:02;4.53;;;1.75;;
13731;SDS011;6937;56.096;12.664;2023-09-19T14:43:28;5.20;;;1.92;;
13731;SDS011;6937;56.096;12.664;2023-09-19T14:46:16;6.13;;;1.88;;
13731;SDS011;6937;56.096;12.664;2023-09-19T14:48:41;6.40;;;1.90;;
13731;SDS011;6937;56.096;12.664;2023-09-19T14:51:07;5.22;;;2.30;;
13731;SDS011;6937;56.096;12.664;2023-09-19T14:53:37;6.70;;;2.13;;
13731;SDS011;6937;56.096;12.664;2023-09-19T14:56:03;7.90;;;2.20;;
13731;SDS011;6937;56.096;12.664;2023-09-19T14:58:30;9.05;;;2.60;;
13731;SDS011;6937;56.096;12.664;2023-09-19T15:01:06;7.90;;;2.40;;
13731;SDS011;6937;56.096;12.664;2023-09-19T15:03:35;6.72;;;2.40;;
13731;SDS011;6937;56.096;12.664;2023-09-19T15:06:02;8.10;;;2.30;;
13731;SDS011;6937;56.096;12.664;2023-09-19T15:08:30;8.23;;;2.50;;
13731;SDS011;6937;56.096;12.664;2023-09-19T15:10:55;9.57;;;2.53;;
13731;SDS011;6937;56.096;12.664;2023-09-19T15:13:23;8.70;;;2.50;;
13731;SDS011;6937;56.096;12.664;2023-09-19T15:15:52;7.90;;;2.72;;
13731;SDS011;6937;56.096;12.664;2023-09-19T15:18:18;6.55;;;2.60;;
13731;SDS011;6937;56.096;12.664;2023-09-19T15:20:44;8.43;;;2.67;;
13731;SDS011;6937;56.096;12.664;2023-09-19T15:23:09;8.52;;;3.03;;
13731;SDS011;6937;56.096;12.664;2023-09-19T15:25:35;8.48;;;2.60;;
13731;SDS011;6937;56.096;12.664;2023-09-19T15:28:00;7.60;;;2.00;;
13731;SDS011;6937;56.096;12.664;2023-09-19T15:30:36;9.23;;;2.63;;
13731;SDS011;6937;56.096;12.664;2023-09-19T15:33:02;10.25;;;2.78;;
13731;SDS011;6937;56.096;12.664;2023-09-19T15:35:28;7.85;;;2.42;;
13731;SDS011;6937;56.096;12.664;2023-09-19T15:37:53;7.95;;;2.65;;
13731;SDS011;6937;56.096;12.664;2023-09-19T15:40:20;8.07;;;2.50;;
13731;SDS011;6937;56.096;12.664;2023-09-19T15:42:48;6.07;;;2.28;;
13731;SDS011;6937;56.096;12.664;2023-09-19T15:45:14;7.82;;;2.65;;
13731;SDS011;6937;56.096;12.664;2023-09-19T15:47:40;6.90;;;2.28;;
13731;SDS011;6937;56.096;12.664;2023-09-19T15:50:05;9.25;;;2.30;;